Terminal Aerodrome Forecast
Issued by NWS

Home | Current Version | Previous Version | Text Only | Print | Product List | Glossary On
Versions: 1 2 3 4 5 6 7 8 9 10 11 12 13 14 15 16 17 18 19 20 21 22 23 24 25 26 27 28 29 30 31 32
000
FTUS41 KBUF 291100
TAFJHW
TAF
KJHW 291127Z 2912/3012 29006KT P6SM SCT018 OVC050
     FM292000 28009KT P6SM VCSH BKN035
     FM292300 27008KT P6SM BKN035
     FM300200 23007KT P6SM BKN045
     FM300600 19009KT P6SM BKN045
     FM301100 21012KT P6SM VCSH BKN035
      AMD LTD TO CLD VIS AND WIND=

USA.gov is the U.S. government's official web portal to all federal, state and local government web resources and services.